sensor_id;sensor_type;location;lat;lon;timestamp;pressure;altitude;pressure_sealevel;temperature;humidity
7824;BME280;3957;48.61947800;9.05303100;2023-01-31T00:01:04;96921.25;;;-0.35;100.00
7824;BME280;3957;48.61947800;9.05303100;2023-01-31T00:02:04;96922.53;;;-0.41;100.00
7824;BME280;3957;48.61947800;9.05303100;2023-01-31T00:03:05;96921.47;;;-0.38;100.00
7824;BME280;3957;48.61947800;9.05303100;2023-01-31T00:04:08;96922.53;;;-0.41;100.00
7824;BME280;3957;48.61947800;9.05303100;2023-01-31T00:05:08;96916.66;;;-0.44;100.00
7824;BME280;3957;48.61947800;9.05303100;2023-01-31T00:07:09;96922.91;;;-0.45;100.00
7824;BME280;3957;48.61947800;9.05303100;2023-01-31T00:08:09;96918.47;;;-0.45;100.00
7824;BME280;3957;48.61947800;9.05303100;2023-01-31T00:09:12;96917.16;;;-0.39;100.00
7824;BME280;3957;48.61947800;9.05303100;2023-01-31T00:10:13;96911.94;;;-0.28;100.00
7824;BME280;3957;48.61947800;9.05303100;2023-01-31T00:11:15;96916.84;;;-0.35;100.00
7824;BME280;3957;48.61947800;9.05303100;2023-01-31T00:12:16;96914.28;;;-0.36;100.00
7824;BME280;3957;48.61947800;9.05303100;2023-01-31T00:13:16;96912.28;;;-0.32;100.00
7824;BME280;3957;48.61947800;9.05303100;2023-01-31T00:14:18;96908.34;;;-0.27;100.00
7824;BME280;3957;48.61947800;9.05303100;2023-01-31T00:15:19;96907.72;;;-0.30;100.00
7824;BME280;3957;48.61947800;9.05303100;2023-01-31T00:16:21;96912.16;;;-0.31;100.00
7824;BME280;3957;48.61947800;9.05303100;2023-01-31T00:17:22;96914.56;;;-0.28;100.00
7824;BME280;3957;48.61947800;9.05303100;2023-01-31T00:18:22;96911.34;;;-0.20;100.00
7824;BME280;3957;48.61947800;9.05303100;2023-01-31T00:19:23;96905.97;;;-0.19;100.00
7824;BME280;3957;48.61947800;9.05303100;2023-01-31T00:20:23;96897.59;;;-0.24;100.00
7824;BME280;3957;48.61947800;9.05303100;2023-01-31T00:21:26;96906.41;;;-0.36;100.00
7824;BME280;3957;48.61947800;9.05303100;2023-01-31T00:22:27;96908.22;;;-0.37;100.00
7824;BME280;3957;48.61947800;9.05303100;2023-01-31T00:23:27;96911.78;;;-0.38;100.00
7824;BME280;3957;48.61947800;9.05303100;2023-01-31T00:24:27;96908.44;;;-0.40;100.00
7824;BME280;3957;48.61947800;9.05303100;2023-01-31T00:25:28;96908.56;;;-0.41;100.00
7824;BME280;3957;48.61947800;9.05303100;2023-01-31T00:26:31;96904.22;;;-0.54;100.00
7824;BME280;3957;48.61947800;9.05303100;2023-01-31T00:27:31;96900.84;;;-0.56;100.00
7824;BME280;3957;48.61947800;9.05303100;2023-01-31T00:28:32;96907.28;;;-0.60;100.00
7824;BME280;3957;48.61947800;9.05303100;2023-01-31T00:29:33;96904.00;;;-0.50;100.00
7824;BME280;3957;48.61947800;9.05303100;2023-01-31T00:30:33;96907.78;;;-0.55;100.00
7824;BME280;3957;48.61947800;9.05303100;2023-01-31T00:31:34;96903.75;;;-0.47;100.00
7824;BME280;3957;48.61947800;9.05303100;2023-01-31T00:32:34;96912.00;;;-0.52;100.00
7824;BME280;3957;48.61947800;9.05303100;2023-01-31T00:33:36;96905.16;;;-0.55;100.00
7824;BME280;3957;48.61947800;9.05303100;2023-01-31T00:34:38;96898.81;;;-0.63;100.00
7824;BME280;3957;48.61947800;9.05303100;2023-01-31T00:35:39;96900.97;;;-0.57;100.00
7824;BME280;3957;48.61947800;9.05303100;2023-01-31T00:36:40;96902.19;;;-0.50;100.00
7824;BME280;3957;48.61947800;9.05303100;2023-01-31T00:37:43;96904.69;;;-0.48;100.00
7824;BME280;3957;48.61947800;9.05303100;2023-01-31T00:38:43;96901.59;;;-0.54;100.00
7824;BME280;3957;48.61947800;9.05303100;2023-01-31T00:39:44;96898.22;;;-0.56;100.00
7824;BME280;3957;48.61947800;9.05303100;2023-01-31T00:40:52;96895.72;;;-0.57;100.00
7824;BME280;3957;48.61947800;9.05303100;2023-01-31T00:41:53;96898.22;;;-0.56;100.00
7824;BME280;3957;48.61947800;9.05303100;2023-01-31T00:42:53;96899.53;;;-0.61;100.00
7824;BME280;3957;48.61947800;9.05303100;2023-01-31T00:43:53;96907.53;;;-0.63;100.00
7824;BME280;3957;48.61947800;9.05303100;2023-01-31T00:44:54;96899.13;;;-0.68;100.00
7824;BME280;3957;48.61947800;9.05303100;2023-01-31T00:45:54;96902.75;;;-0.69;100.00
7824;BME280;3957;48.61947800;9.05303100;2023-01-31T00:46:56;96903.34;;;-0.65;100.00
7824;BME280;3957;48.61947800;9.05303100;2023-01-31T00:47:57;96901.06;;;-0.70;100.00
7824;BME280;3957;48.61947800;9.05303100;2023-01-31T00:48:57;96907.50;;;-0.74;100.00
7824;BME280;3957;48.61947800;9.05303100;2023-01-31T00:49:57;96901.06;;;-0.70;100.00
7824;BME280;3957;48.61947800;9.05303100;2023-01-31T00:50:58;96905.84;;;-0.64;100.00
7824;BME280;3957;48.61947800;9.05303100;2023-01-31T00:51:58;96905.13;;;-0.66;100.00
7824;BME280;3957;48.61947800;9.05303100;2023-01-31T00:52:59;96900.44;;;-0.74;100.00
7824;BME280;3957;48.61947800;9.05303100;2023-01-31T00:53:59;96899.50;;;-0.73;100.00
7824;BME280;3957;48.61947800;9.05303100;2023-01-31T00:55:00;96905.56;;;-0.72;100.00
7824;BME280;3957;48.61947800;9.05303100;2023-01-31T00:57:06;96894.06;;;-0.82;100.00
7824;BME280;3957;48.61947800;9.05303100;2023-01-31T00:58:06;96902.78;;;-0.82;100.00
7824;BME280;3957;48.61947800;9.05303100;2023-01-31T00:59:07;96893.97;;;-0.81;100.00
7824;BME280;3957;48.61947800;9.05303100;2023-01-31T01:00:08;96902.63;;;-0.92;100.00
7824;BME280;3957;48.61947800;9.05303100;2023-01-31T01:01:13;96895.84;;;-0.83;100.00
7824;BME280;3957;48.61947800;9.05303100;2023-01-31T01:02:13;96900.31;;;-0.72;100.00
7824;BME280;3957;48.61947800;9.05303100;2023-01-31T01:03:14;96899.56;;;-0.86;100.00
7824;BME280;3957;48.61947800;9.05303100;2023-01-31T01:04:14;96904.19;;;-0.89;100.00
7824;BME280;3957;48.61947800;9.05303100;2023-01-31T01:05:15;96899.88;;;-0.90;100.00
7824;BME280;3957;48.61947800;9.05303100;2023-01-31T01:06:15;96902.50;;;-0.90;100.00
7824;BME280;3957;48.61947800;9.05303100;2023-01-31T01:07:15;96902.50;;;-0.90;100.00
7824;BME280;3957;48.61947800;9.05303100;2023-01-31T01:08:16;96897.75;;;-0.85;100.00
7824;BME280;3957;48.61947800;9.05303100;2023-01-31T01:09:16;96898.13;;;-0.90;100.00
7824;BME280;3957;48.61947800;9.05303100;2023-01-31T01:10:17;96891.19;;;-0.91;100.00
7824;BME280;3957;48.61947800;9.05303100;2023-01-31T01:11:21;96891.59;;;-0.97;100.00
7824;BME280;3957;48.61947800;9.05303100;2023-01-31T01:12:21;96888.81;;;-1.07;100.00
7824;BME280;3957;48.61947800;9.05303100;2023-01-31T01:13:22;96894.94;;;-1.06;100.00
7824;BME280;3957;48.61947800;9.05303100;2023-01-31T01:14:22;96890.78;;;-0.97;100.00
7824;BME280;3957;48.61947800;9.05303100;2023-01-31T01:15:22;96891.31;;;-1.05;100.00
7824;BME280;3957;48.61947800;9.05303100;2023-01-31T01:16:26;96889.03;;;-1.10;100.00
7824;BME280;3957;48.61947800;9.05303100;2023-01-31T01:17:26;96893.78;;;-1.15;100.00
7824;BME280;3957;48.61947800;9.05303100;2023-01-31T01:18:27;96890.09;;;-1.12;100.00
7824;BME280;3957;48.61947800;9.05303100;2023-01-31T01:19:27;96889.69;;;-1.19;100.00
7824;BME280;3957;48.61947800;9.05303100;2023-01-31T01:20:28;96889.31;;;-1.26;100.00
7824;BME280;3957;48.61947800;9.05303100;2023-01-31T01:21:29;96888.53;;;-1.15;100.00
7824;BME280;3957;48.61947800;9.05303100;2023-01-31T01:22:34;96886.88;;;-1.16;100.00
7824;BME280;3957;48.61947800;9.05303100;2023-01-31T01:23:36;96882.56;;;-1.17;100.00
7824;BME280;3957;48.61947800;9.05303100;2023-01-31T01:24:37;96882.56;;;-1.17;100.00
7824;BME280;3957;48.61947800;9.05303100;2023-01-31T01:25:42;96884.25;;;-1.16;100.00
7824;BME280;3957;48.61947800;9.05303100;2023-01-31T01:26:43;96880.44;;;-1.12;100.00
7824;BME280;3957;48.61947800;9.05303100;2023-01-31T01:27:44;96872.78;;;-1.15;100.00
7824;BME280;3957;48.61947800;9.05303100;2023-01-31T01:28:45;96870.03;;;-1.13;100.00
7824;BME280;3957;48.61947800;9.05303100;2023-01-31T01:29:46;96871.53;;;-1.22;100.00
7824;BME280;3957;48.61947800;9.05303100;2023-01-31T01:30:46;96875.78;;;-1.08;100.00
7824;BME280;3957;48.61947800;9.05303100;2023-01-31T01:31:46;96878.88;;;-1.14;100.00
7824;BME280;3957;48.61947800;9.05303100;2023-01-31T01:32:47;96875.28;;;-1.13;100.00
7824;BME280;3957;48.61947800;9.05303100;2023-01-31T01:33:48;96877.19;;;-1.15;100.00
7824;BME280;3957;48.61947800;9.05303100;2023-01-31T01:34:49;96875.28;;;-1.13;100.00
7824;BME280;3957;48.61947800;9.05303100;2023-01-31T01:35:49;96878.59;;;-1.23;100.00
7824;BME280;3957;48.61947800;9.05303100;2023-01-31T01:36:49;96874.69;;;-1.17;100.00
7824;BME280;3957;48.61947800;9.05303100;2023-01-31T01:37:50;96876.84;;;-1.11;100.00
7824;BME280;3957;48.61947800;9.05303100;2023-01-31T01:38:51;96879.59;;;-1.12;100.00
7824;BME280;3957;48.61947800;9.05303100;2023-01-31T01:39:51;96882.22;;;-1.12;100.00
7824;BME280;3957;48.61947800;9.05303100;2023-01-31T01:40:52;96878.53;;;-1.10;100.00
7824;BME280;3957;48.61947800;9.05303100;2023-01-31T01:41:52;96879.38;;;-1.09;100.00
7824;BME280;3957;48.61947800;9.05303100;2023-01-31T01:42:53;96881.00;;;-1.20;100.00
7824;BME280;3957;48.61947800;9.05303100;2023-01-31T01:43:58;96886.69;;;-1.26;100.00
7824;BME280;3957;48.61947800;9.05303100;2023-01-31T01:45:00;96879.31;;;-1.21;100.00
7824;BME280;3957;48.61947800;9.05303100;2023-01-31T01:46:01;96877.44;;;-1.18;100.00
7824;BME280;3957;48.61947800;9.05303100;2023-01-31T01:47:01;96879.31;;;-1.21;100.00
7824;BME280;3957;48.61947800;9.05303100;2023-01-31T01:48:05;96887.19;;;-1.21;100.00
7824;BME280;3957;48.61947800;9.05303100;2023-01-31T01:49:17;96889.16;;;-1.11;100.00
7824;BME280;3957;48.61947800;9.05303100;2023-01-31T01:50:33;96897.59;;;-1.19;100.00
7824;BME280;3957;48.61947800;9.05303100;2023-01-31T01:51:36;96884.72;;;-1.11;100.00
7824;BME280;3957;48.61947800;9.05303100;2023-01-31T01:52:45;96887.31;;;-1.22;100.00
7824;BME280;3957;48.61947800;9.05303100;2023-01-31T01:53:52;96888.25;;;-1.23;100.00
7824;BME280;3957;48.61947800;9.05303100;2023-01-31T01:54:57;96897.91;;;-1.24;100.00
7824;BME280;3957;48.61947800;9.05303100;2023-01-31T01:56:07;96890.88;;;-1.23;100.00
7824;BME280;3957;48.61947800;9.05303100;2023-01-31T01:57:10;96891.28;;;-1.16;100.00
7824;BME280;3957;48.61947800;9.05303100;2023-01-31T01:58:26;96897.66;;;-1.08;100.00
7824;BME280;3957;48.61947800;9.05303100;2023-01-31T01:59:34;96900.50;;;-1.11;100.00
7824;BME280;3957;48.61947800;9.05303100;2023-01-31T02:00:37;96890.16;;;-1.01;100.00
7824;BME280;3957;48.61947800;9.05303100;2023-01-31T02:01:38;96892.91;;;-1.03;100.00
7824;BME280;3957;48.61947800;9.05303100;2023-01-31T02:02:43;96897.66;;;-1.08;100.00
7824;BME280;3957;48.61947800;9.05303100;2023-01-31T02:03:45;96899.13;;;-1.04;100.00
7824;BME280;3957;48.61947800;9.05303100;2023-01-31T02:04:48;96900.50;;;-1.11;100.00
7824;BME280;3957;48.61947800;9.05303100;2023-01-31T02:05:53;96903.34;;;-1.14;100.00
7824;BME280;3957;48.61947800;9.05303100;2023-01-31T02:06:56;96909.22;;;-1.10;100.00
7824;BME280;3957;48.61947800;9.05303100;2023-01-31T02:07:58;96903.97;;;-1.10;100.00
7824;BME280;3957;48.61947800;9.05303100;2023-01-31T02:08:59;96902.19;;;-1.10;100.00
7824;BME280;3957;48.61947800;9.05303100;2023-01-31T02:10:22;96898.22;;;-1.15;100.00
7824;BME280;3957;48.61947800;9.05303100;2023-01-31T02:11:27;96902.13;;;-1.21;100.00
7824;BME280;3957;48.61947800;9.05303100;2023-01-31T02:12:32;96893.00;;;-1.28;100.00
7824;BME280;3957;48.61947800;9.05303100;2023-01-31T02:13:33;96899.50;;;-1.21;100.00
7824;BME280;3957;48.61947800;9.05303100;2023-01-31T02:14:34;96900.31;;;-1.21;100.00
7824;BME280;3957;48.61947800;9.05303100;2023-01-31T02:15:35;96896.41;;;-1.15;100.00
7824;BME280;3957;48.61947800;9.05303100;2023-01-31T02:16:36;96902.28;;;-1.11;100.00
7824;BME280;3957;48.61947800;9.05303100;2023-01-31T02:17:37;96901.78;;;-1.16;100.00
7824;BME280;3957;48.61947800;9.05303100;2023-01-31T02:18:39;96907.88;;;-1.16;100.00
7824;BME280;3957;48.61947800;9.05303100;2023-01-31T02:22:58;96906.09;;;-1.15;100.00
7824;BME280;3957;48.61947800;9.05303100;2023-01-31T02:24:45;96913.56;;;-1.22;100.00
7824;BME280;3957;48.61947800;9.05303100;2023-01-31T02:25:57;96914.91;;;-1.16;100.00
7824;BME280;3957;48.61947800;9.05303100;2023-01-31T02:27:23;96912.09;;;-1.26;100.00
7824;BME280;3957;48.61947800;9.05303100;2023-01-31T02:31:26;96918.09;;;-1.24;100.00
7824;BME280;3957;48.61947800;9.05303100;2023-01-31T02:36:43;96904.06;;;-1.36;100.00
7824;BME280;3957;48.61947800;9.05303100;2023-01-31T02:37:59;96900.47;;;-1.35;100.00
7824;BME280;3957;48.61947800;9.05303100;2023-01-31T02:41:51;96908.78;;;-1.41;100.00
7824;BME280;3957;48.61947800;9.05303100;2023-01-31T02:43:01;96904.50;;;-1.42;100.00
7824;BME280;3957;48.61947800;9.05303100;2023-01-31T02:44:28;96903.09;;;-1.35;100.00
7824;BME280;3957;48.61947800;9.05303100;2023-01-31T02:46:04;96902.88;;;-1.32;100.00
7824;BME280;3957;48.61947800;9.05303100;2023-01-31T02:47:15;96909.31;;;-1.36;100.00
7824;BME280;3957;48.61947800;9.05303100;2023-01-31T02:48:57;96915.88;;;-1.55;100.00
7824;BME280;3957;48.61947800;9.05303100;2023-01-31T02:51:13;96923.47;;;-1.39;100.00
7824;BME280;3957;48.61947800;9.05303100;2023-01-31T02:52:33;96928.00;;;-1.41;100.00
7824;BME280;3957;48.61947800;9.05303100;2023-01-31T02:53:46;96924.41;;;-1.40;100.00
7824;BME280;3957;48.61947800;9.05303100;2023-01-31T02:56:31;96921.78;;;-1.27;100.00
7824;BME280;3957;48.61947800;9.05303100;2023-01-31T02:57:34;96916.94;;;-1.33;100.00
7824;BME280;3957;48.61947800;9.05303100;2023-01-31T02:58:37;96920.97;;;-1.40;100.00
7824;BME280;3957;48.61947800;9.05303100;2023-01-31T02:59:39;96913.03;;;-1.51;100.00
7824;BME280;3957;48.61947800;9.05303100;2023-01-31T03:00:42;96918.88;;;-1.48;100.00
7824;BME280;3957;48.61947800;9.05303100;2023-01-31T03:01:48;96918.56;;;-1.43;100.00
7824;BME280;3957;48.61947800;9.05303100;2023-01-31T03:02:50;96915.25;;;-1.21;100.00
7824;BME280;3957;48.61947800;9.05303100;2023-01-31T03:03:52;96926.28;;;-1.29;100.00
7824;BME280;3957;48.61947800;9.05303100;2023-01-31T03:04:52;96913.91;;;-1.27;100.00
7824;BME280;3957;48.61947800;9.05303100;2023-01-31T03:07:29;96916.47;;;-1.14;100.00
7824;BME280;3957;48.61947800;9.05303100;2023-01-31T03:08:33;96915.53;;;-1.13;100.00
7824;BME280;3957;48.61947800;9.05303100;2023-01-31T03:10:02;96928.03;;;-1.16;100.00
7824;BME280;3957;48.61947800;9.05303100;2023-01-31T03:11:09;96913.22;;;-1.17;100.00
7824;BME280;3957;48.61947800;9.05303100;2023-01-31T03:12:30;96912.22;;;-1.28;100.00
7824;BME280;3957;48.61947800;9.05303100;2023-01-31T03:13:47;96918.34;;;-1.40;100.00
7824;BME280;3957;48.61947800;9.05303100;2023-01-31T03:16:35;96928.63;;;-1.37;100.00
7824;BME280;3957;48.61947800;9.05303100;2023-01-31T03:18:14;96922.19;;;-1.33;100.00
7824;BME280;3957;48.61947800;9.05303100;2023-01-31T03:19:24;96920.31;;;-1.31;100.00
7824;BME280;3957;48.61947800;9.05303100;2023-01-31T03:20:38;96923.88;;;-1.32;100.00
7824;BME280;3957;48.61947800;9.05303100;2023-01-31T03:21:49;96922.53;;;-1.38;100.00
7824;BME280;3957;48.61947800;9.05303100;2023-01-31T03:23:00;96917.41;;;-1.39;100.00
7824;BME280;3957;48.61947800;9.05303100;2023-01-31T03:24:03;96919.16;;;-1.40;100.00
7824;BME280;3957;48.61947800;9.05303100;2023-01-31T03:25:07;96922.84;;;-1.29;100.00
7824;BME280;3957;48.61947800;9.05303100;2023-01-31T03:26:09;96918.44;;;-1.42;100.00
7824;BME280;3957;48.61947800;9.05303100;2023-01-31T03:27:11;96923.06;;;-1.32;100.00
7824;BME280;3957;48.61947800;9.05303100;2023-01-31T03:28:17;96918.88;;;-1.35;100.00
7824;BME280;3957;48.61947800;9.05303100;2023-01-31T03:29:22;96920.63;;;-1.35;100.00
7824;BME280;3957;48.61947800;9.05303100;2023-01-31T03:30:30;96926.28;;;-1.29;100.00
7824;BME280;3957;48.61947800;9.05303100;2023-01-31T03:59:47;96937.81;;;-2.20;100.00
7824;BME280;3957;48.61947800;9.05303100;2023-01-31T04:00:53;96936.88;;;-2.32;100.00
7824;BME280;3957;48.61947800;9.05303100;2023-01-31T04:01:58;96941.34;;;-2.34;100.00
7824;BME280;3957;48.61947800;9.05303100;2023-01-31T04:03:11;96941.25;;;-2.45;100.00
7824;BME280;3957;48.61947800;9.05303100;2023-01-31T04:04:20;96949.50;;;-2.51;100.00
7824;BME280;3957;48.61947800;9.05303100;2023-01-31T04:05:23;96946.34;;;-2.57;100.00
7824;BME280;3957;48.61947800;9.05303100;2023-01-31T04:06:29;96947.78;;;-2.65;100.00
7824;BME280;3957;48.61947800;9.05303100;2023-01-31T04:07:30;96959.59;;;-2.72;100.00
7824;BME280;3957;48.61947800;9.05303100;2023-01-31T04:08:32;96953.63;;;-2.75;100.00
7824;BME280;3957;48.61947800;9.05303100;2023-01-31T04:09:36;96954.88;;;-2.80;100.00
7824;BME280;3957;48.61947800;9.05303100;2023-01-31T04:10:37;96956.94;;;-2.85;100.00
7824;BME280;3957;48.61947800;9.05303100;2023-01-31T04:11:39;96953.56;;;-2.87;100.00
7824;BME280;3957;48.61947800;9.05303100;2023-01-31T04:12:40;96961.25;;;-2.84;100.00
7824;BME280;3957;48.61947800;9.05303100;2023-01-31T04:13:41;96962.41;;;-2.88;100.00
7824;BME280;3957;48.61947800;9.05303100;2023-01-31T04:14:42;96962.41;;;-2.88;100.00
7824;BME280;3957;48.61947800;9.05303100;2023-01-31T04:15:42;96955.59;;;-2.78;100.00
7824;BME280;3957;48.61947800;9.05303100;2023-01-31T04:16:43;96961.63;;;-2.63;100.00
7824;BME280;3957;48.61947800;9.05303100;2023-01-31T04:17:44;96960.69;;;-2.62;100.00
7824;BME280;3957;48.61947800;9.05303100;2023-01-31T04:18:44;96958.38;;;-2.67;100.00
7824;BME280;3957;48.61947800;9.05303100;2023-01-31T04:19:44;96958.03;;;-2.75;100.00
7824;BME280;3957;48.61947800;9.05303100;2023-01-31T04:20:45;96959.31;;;-2.68;100.00
7824;BME280;3957;48.61947800;9.05303100;2023-01-31T04:21:45;96958.47;;;-2.68;100.00
7824;BME280;3957;48.61947800;9.05303100;2023-01-31T04:22:45;96959.59;;;-2.72;100.00
7824;BME280;3957;48.61947800;9.05303100;2023-01-31T04:23:46;96959.41;;;-2.69;100.00
7824;BME280;3957;48.61947800;9.05303100;2023-01-31T04:24:46;96957.63;;;-2.69;100.00
7824;BME280;3957;48.61947800;9.05303100;2023-01-31T04:25:46;96955.22;;;-2.72;100.00
7824;BME280;3957;48.61947800;9.05303100;2023-01-31T04:26:47;96964.22;;;-2.76;100.00
7824;BME280;3957;48.61947800;9.05303100;2023-01-31T04:27:47;96959.16;;;-2.79;100.00
7824;BME280;3957;48.61947800;9.05303100;2023-01-31T04:28:48;96967.13;;;-2.81;100.00
7824;BME280;3957;48.61947800;9.05303100;2023-01-31T04:29:49;96965.63;;;-2.85;100.00
7824;BME280;3957;48.61947800;9.05303100;2023-01-31T04:30:56;96961.53;;;-2.89;100.00
7824;BME280;3957;48.61947800;9.05303100;2023-01-31T04:31:56;96962.28;;;-2.87;100.00
7824;BME280;3957;48.61947800;9.05303100;2023-01-31T04:32:56;96959.78;;;-2.88;100.00
7824;BME280;3957;48.61947800;9.05303100;2023-01-31T04:33:57;96956.03;;;-2.84;100.00
7824;BME280;3957;48.61947800;9.05303100;2023-01-31T04:34:58;96956.09;;;-2.86;100.00
7824;BME280;3957;48.61947800;9.05303100;2023-01-31T04:35:59;96958.19;;;-2.91;100.00
7824;BME280;3957;48.61947800;9.05303100;2023-01-31T04:37:00;96954.19;;;-2.97;100.00
7824;BME280;3957;48.61947800;9.05303100;2023-01-31T04:38:00;96955.00;;;-2.96;100.00
7824;BME280;3957;48.61947800;9.05303100;2023-01-31T04:39:01;96955.38;;;-2.88;100.00
7824;BME280;3957;48.61947800;9.05303100;2023-01-31T04:40:01;96963.13;;;-2.86;100.00
7824;BME280;3957;48.61947800;9.05303100;2023-01-31T04:41:02;96965.75;;;-2.86;100.00
7824;BME280;3957;48.61947800;9.05303100;2023-01-31T04:42:02;96964.00;;;-2.73;100.00
7824;BME280;3957;48.61947800;9.05303100;2023-01-31T04:43:02;96963.91;;;-2.71;100.00
7824;BME280;3957;48.61947800;9.05303100;2023-01-31T04:44:03;96959.72;;;-2.74;100.00
7824;BME280;3957;48.61947800;9.05303100;2023-01-31T04:45:03;96960.47;;;-2.72;100.00
7824;BME280;3957;48.61947800;9.05303100;2023-01-31T04:46:04;96968.84;;;-2.67;100.00
7824;BME280;3957;48.61947800;9.05303100;2023-01-31T04:47:04;96962.03;;;-2.69;100.00
7824;BME280;3957;48.61947800;9.05303100;2023-01-31T04:48:05;96972.59;;;-2.71;100.00
7824;BME280;3957;48.61947800;9.05303100;2023-01-31T04:49:05;96969.06;;;-2.70;100.00
7824;BME280;3957;48.61947800;9.05303100;2023-01-31T04:50:06;96965.50;;;-2.69;100.00
7824;BME280;3957;48.61947800;9.05303100;2023-01-31T04:51:07;96971.00;;;-2.74;100.00
7824;BME280;3957;48.61947800;9.05303100;2023-01-31T04:52:08;96967.25;;;-2.69;100.00
7824;BME280;3957;48.61947800;9.05303100;2023-01-31T04:53:09;96971.34;;;-2.65;100.00
7824;BME280;3957;48.61947800;9.05303100;2023-01-31T04:54:10;96975.28;;;-2.58;100.00
7824;BME280;3957;48.61947800;9.05303100;2023-01-31T04:55:10;96969.28;;;-2.60;100.00
7824;BME280;3957;48.61947800;9.05303100;2023-01-31T04:56:11;96962.19;;;-2.58;100.00
7824;BME280;3957;48.61947800;9.05303100;2023-01-31T04:57:11;96965.41;;;-2.54;100.00
7824;BME280;3957;48.61947800;9.05303100;2023-01-31T04:58:12;96967.84;;;-2.51;100.00
7824;BME280;3957;48.61947800;9.05303100;2023-01-31T04:59:12;96971.53;;;-2.54;100.00
7824;BME280;3957;48.61947800;9.05303100;2023-01-31T05:00:13;96963.66;;;-2.54;100.00
7824;BME280;3957;48.61947800;9.05303100;2023-01-31T05:01:13;96968.91;;;-2.54;100.00
7824;BME280;3957;48.61947800;9.05303100;2023-01-31T05:02:14;96972.56;;;-2.57;100.00
7824;BME280;3957;48.61947800;9.05303100;2023-01-31T05:03:14;96967.09;;;-2.53;100.00
7824;BME280;3957;48.61947800;9.05303100;2023-01-31T05:04:15;96964.28;;;-2.50;100.00
7824;BME280;3957;48.61947800;9.05303100;2023-01-31T05:05:15;96968.47;;;-2.48;100.00
7824;BME280;3957;48.61947800;9.05303100;2023-01-31T05:06:16;96969.13;;;-2.44;100.00
7824;BME280;3957;48.61947800;9.05303100;2023-01-31T05:07:16;96968.81;;;-2.40;100.00
7824;BME280;3957;48.61947800;9.05303100;2023-01-31T05:08:16;96964.81;;;-2.45;100.00
7824;BME280;3957;48.61947800;9.05303100;2023-01-31T05:09:17;96969.03;;;-2.43;100.00
7824;BME280;3957;48.61947800;9.05303100;2023-01-31T05:10:17;96957.28;;;-2.50;100.00
7824;BME280;3957;48.61947800;9.05303100;2023-01-31T05:11:18;96959.91;;;-2.50;100.00
7824;BME280;3957;48.61947800;9.05303100;2023-01-31T05:12:18;96953.06;;;-2.52;100.00
7824;BME280;3957;48.61947800;9.05303100;2023-01-31T05:13:18;96958.59;;;-2.57;100.00
7824;BME280;3957;48.61947800;9.05303100;2023-01-31T05:14:19;96953.19;;;-2.54;100.00
7824;BME280;3957;48.61947800;9.05303100;2023-01-31T05:15:20;96956.63;;;-2.53;100.00
7824;BME280;3957;48.61947800;9.05303100;2023-01-31T05:16:20;96954.84;;;-2.53;100.00
7824;BME280;3957;48.61947800;9.05303100;2023-01-31T05:17:21;96968.69;;;-2.51;100.00
7824;BME280;3957;48.61947800;9.05303100;2023-01-31T05:18:28;96970.28;;;-2.48;100.00
7824;BME280;3957;48.61947800;9.05303100;2023-01-31T05:19:29;96969.13;;;-2.44;100.00
7824;BME280;3957;48.61947800;9.05303100;2023-01-31T05:20:34;96975.31;;;-2.45;100.00
7824;BME280;3957;48.61947800;9.05303100;2023-01-31T05:21:37;96974.16;;;-2.41;100.00
7824;BME280;3957;48.61947800;9.05303100;2023-01-31T05:22:53;96972.19;;;-2.37;100.00
7824;BME280;3957;48.61947800;9.05303100;2023-01-31T05:23:54;96975.84;;;-2.40;100.00
7824;BME280;3957;48.61947800;9.05303100;2023-01-31T05:24:54;96980.34;;;-2.42;100.00
7824;BME280;3957;48.61947800;9.05303100;2023-01-31T05:25:55;96981.09;;;-2.40;100.00
7824;BME280;3957;48.61947800;9.05303100;2023-01-31T05:26:57;96977.50;;;-2.39;100.00
7824;BME280;3957;48.61947800;9.05303100;2023-01-31T05:27:58;96976.78;;;-2.41;100.00
7824;BME280;3957;48.61947800;9.05303100;2023-01-31T05:28:59;96972.91;;;-2.35;100.00
7824;BME280;3957;48.61947800;9.05303100;2023-01-31T05:30:02;96974.88;;;-2.39;100.00
7824;BME280;3957;48.61947800;9.05303100;2023-01-31T05:31:06;96968.50;;;-2.35;100.00
7824;BME280;3957;48.61947800;9.05303100;2023-01-31T05:32:07;96970.28;;;-2.35;100.00
7824;BME280;3957;48.61947800;9.05303100;2023-01-31T05:33:08;96972.81;;;-2.34;100.00
7824;BME280;3957;48.61947800;9.05303100;2023-01-31T05:34:08;96975.44;;;-2.34;100.00
7824;BME280;3957;48.61947800;9.05303100;2023-01-31T05:35:11;96982.38;;;-2.33;100.00
7824;BME280;3957;48.61947800;9.05303100;2023-01-31T05:36:12;96978.59;;;-2.29;100.00
7824;BME280;3957;48.61947800;9.05303100;2023-01-31T05:37:12;96978.69;;;-2.30;100.00
7824;BME280;3957;48.61947800;9.05303100;2023-01-31T05:38:13;96977.84;;;-2.31;100.00
7824;BME280;3957;48.61947800;9.05303100;2023-01-31T05:39:13;96979.63;;;-2.31;100.00
7824;BME280;3957;48.61947800;9.05303100;2023-01-31T05:40:16;96978.06;;;-2.34;100.00
7824;BME280;3957;48.61947800;9.05303100;2023-01-31T05:41:16;96979.31;;;-2.40;100.00
7824;BME280;3957;48.61947800;9.05303100;2023-01-31T05:42:16;96978.38;;;-2.38;100.00
7824;BME280;3957;48.61947800;9.05303100;2023-01-31T05:43:17;96972.38;;;-2.41;100.00
7824;BME280;3957;48.61947800;9.05303100;2023-01-31T05:44:18;96973.72;;;-2.48;100.00
7824;BME280;3957;48.61947800;9.05303100;2023-01-31T05:45:19;96970.28;;;-2.48;100.00
7824;BME280;3957;48.61947800;9.05303100;2023-01-31T05:46:19;96973.50;;;-2.45;100.00
7824;BME280;3957;48.61947800;9.05303100;2023-01-31T05:47:20;96976.66;;;-2.52;100.00
7824;BME280;3957;48.61947800;9.05303100;2023-01-31T05:48:22;96974.97;;;-2.53;100.00
7824;BME280;3957;48.61947800;9.05303100;2023-01-31T05:49:22;96969.41;;;-2.49;100.00